createdAt,value
2017-03-30T00:01:26.707Z,0
2017-03-30T00:03:50.364Z,0
2017-03-30T00:06:14.183Z,0
2017-03-30T00:08:37.770Z,0
2017-03-30T00:11:01.351Z,0
2017-03-30T00:13:25.047Z,0
2017-03-30T00:15:48.709Z,0
2017-03-30T00:18:12.362Z,0
2017-03-30T00:20:36.050Z,0
2017-03-30T00:22:59.735Z,0
2017-03-30T00:29:27.707Z,0
2017-03-30T00:31:51.413Z,0
2017-03-30T00:38:35.710Z,0
2017-03-30T00:40:59.391Z,0
2017-03-30T00:45:24.717Z,0
2017-03-30T00:47:48.039Z,0
2017-03-30T00:50:11.807Z,0
2017-03-30T00:52:35.405Z,0
2017-03-30T00:54:52.751Z,0
2017-03-30T00:57:16.383Z,0
2017-03-30T01:01:50.917Z,0
2017-03-30T01:04:15.830Z,0
2017-03-30T01:06:39.576Z,0
2017-03-30T01:09:03.084Z,0
2017-03-30T01:11:27.693Z,0
2017-03-30T01:13:51.271Z,0
2017-03-30T01:16:15.281Z,0
2017-03-30T01:18:38.867Z,0
2017-03-30T01:21:02.523Z,0
2017-03-30T01:23:26.234Z,0
2017-03-30T01:25:49.683Z,0
2017-03-30T01:28:14.298Z,0
2017-03-30T01:30:38.927Z,0
2017-03-30T01:33:02.523Z,0
2017-03-30T01:35:26.233Z,0
2017-03-30T01:37:49.949Z,0
2017-03-30T01:40:13.665Z,0
2017-03-30T01:42:37.273Z,0
2017-03-30T01:45:01.968Z,0
2017-03-30T01:47:26.667Z,0
2017-03-30T01:51:43.655Z,0
2017-03-30T01:54:07.367Z,0
2017-03-30T01:56:32.055Z,0
2017-03-30T01:58:57.679Z,0
2017-03-30T02:01:21.346Z,0
2017-03-30T02:03:36.640Z,0
2017-03-30T02:06:00.280Z,0
2017-03-30T02:08:23.969Z,0
2017-03-30T02:10:47.640Z,0
2017-03-30T02:13:13.280Z,0
2017-03-30T02:17:38.704Z,0
2017-03-30T02:19:54.993Z,0
2017-03-30T02:22:19.687Z,0
2017-03-30T02:26:36.563Z,0
2017-03-30T02:30:53.434Z,0
2017-03-30T02:33:17.315Z,0
2017-03-30T02:35:40.841Z,0
2017-03-30T02:38:05.443Z,0
2017-03-30T02:40:30.069Z,0
2017-03-30T02:43:00.521Z,0
2017-03-30T02:45:24.081Z,0
2017-03-30T02:47:47.628Z,0
2017-03-30T02:50:11.187Z,0
2017-03-30T02:52:34.768Z,0
2017-03-30T02:54:58.328Z,0
2017-03-30T02:57:21.907Z,0
2017-03-30T02:59:45.676Z,0
2017-03-30T03:02:09.376Z,0
2017-03-30T03:04:32.952Z,0
2017-03-30T03:06:56.517Z,0
2017-03-30T03:09:21.121Z,0
2017-03-30T03:11:44.686Z,0
2017-03-30T03:14:09.144Z,0
2017-03-30T03:16:32.728Z,0
2017-03-30T03:18:56.490Z,0
2017-03-30T03:21:20.378Z,0
2017-03-30T03:23:44.899Z,0
2017-03-30T03:26:08.577Z,0
2017-03-30T03:28:32.166Z,0
2017-03-30T03:30:55.805Z,0
2017-03-30T03:33:19.497Z,0
2017-03-30T03:35:45.089Z,0
2017-03-30T03:38:10.591Z,0
2017-03-30T03:40:35.301Z,0
2017-03-30T03:43:00.083Z,0
2017-03-30T03:45:23.575Z,0
2017-03-30T03:47:48.332Z,0
2017-03-30T03:50:11.665Z,0
2017-03-30T03:52:33.538Z,0
2017-03-30T03:54:57.451Z,0
2017-03-30T03:57:21.067Z,0
2017-03-30T03:59:44.455Z,0
2017-03-30T04:02:08.003Z,0
2017-03-30T04:04:32.506Z,0
2017-03-30T04:06:58.160Z,0
2017-03-30T04:13:25.178Z,0
2017-03-30T04:15:48.782Z,0
2017-03-30T04:18:12.444Z,0
2017-03-30T04:20:37.837Z,0
2017-03-30T04:23:03.353Z,0
2017-03-30T04:25:26.945Z,0
2017-03-30T04:27:51.532Z,0
2017-03-30T04:30:16.068Z,0
2017-03-30T04:32:39.603Z,0
2017-03-30T04:36:58.506Z,0
2017-03-30T04:39:22.059Z,0
2017-03-30T04:41:45.617Z,0
2017-03-30T04:44:09.201Z,0
2017-03-30T04:46:34.681Z,0
2017-03-30T04:50:26.038Z,0
2017-03-30T04:52:49.604Z,0
2017-03-30T04:55:14.110Z,0
2017-03-30T04:57:37.658Z,0
2017-03-30T05:00:01.225Z,0
2017-03-30T05:02:25.734Z,0
2017-03-30T05:04:49.195Z,0
2017-03-30T05:07:19.405Z,0
2017-03-30T05:09:42.941Z,0
2017-03-30T05:12:13.409Z,5
2017-03-30T05:14:37.188Z,5
2017-03-30T05:18:27.954Z,10
2017-03-30T05:20:52.542Z,15
2017-03-30T05:23:16.076Z,15
2017-03-30T05:25:39.664Z,20
2017-03-30T05:28:03.242Z,25
2017-03-30T05:30:27.880Z,30
2017-03-30T05:32:51.316Z,35
2017-03-30T05:35:14.978Z,40
2017-03-30T05:37:38.530Z,45
2017-03-30T05:40:02.140Z,55
2017-03-30T05:42:25.794Z,95
2017-03-30T05:44:49.328Z,180
2017-03-30T05:47:13.074Z,210
2017-03-30T05:49:37.543Z,345
2017-03-30T05:52:01.224Z,395
2017-03-30T05:54:24.917Z,450
2017-03-30T05:56:48.741Z,490
2017-03-30T05:59:12.631Z,510
2017-03-30T06:01:37.611Z,595
2017-03-30T06:04:01.762Z,580
2017-03-30T06:06:27.998Z,550
2017-03-30T06:08:53.056Z,620
2017-03-30T06:11:17.428Z,695
2017-03-30T06:13:42.733Z,585
2017-03-30T06:17:44.437Z,475
2017-03-30T06:20:10.862Z,680
2017-03-30T06:22:35.336Z,650
2017-03-30T06:24:59.829Z,810
2017-03-30T06:27:23.869Z,900
2017-03-30T06:29:48.253Z,1015
2017-03-30T06:32:12.654Z,1040
2017-03-30T06:34:37.030Z,990
2017-03-30T06:37:01.333Z,940
2017-03-30T06:39:25.780Z,575
2017-03-30T06:41:50.152Z,200
2017-03-30T06:44:14.678Z,180
2017-03-30T06:46:38.897Z,180
2017-03-30T06:49:04.327Z,180
2017-03-30T06:51:29.482Z,180
2017-03-30T06:53:54.938Z,180
2017-03-30T06:56:19.248Z,185
2017-03-30T06:58:44.554Z,185
2017-03-30T07:01:10.011Z,195
2017-03-30T07:03:35.649Z,195
2017-03-30T07:06:00.393Z,230
2017-03-30T07:08:25.286Z,570
2017-03-30T07:10:50.419Z,1330
2017-03-30T07:13:15.476Z,1615
2017-03-30T07:15:40.841Z,1605
2017-03-30T07:18:06.447Z,1665
2017-03-30T07:20:32.202Z,1630
2017-03-30T07:22:57.987Z,1615
2017-03-30T07:25:23.832Z,1605
2017-03-30T07:27:41.470Z,1615
2017-03-30T07:30:07.694Z,1575
2017-03-30T07:32:34.485Z,515
2017-03-30T07:35:00.802Z,465
2017-03-30T07:37:27.211Z,495
2017-03-30T07:39:53.652Z,495
2017-03-30T07:42:20.189Z,400
2017-03-30T07:44:47.026Z,465
2017-03-30T07:47:14.103Z,450
2017-03-30T07:49:41.082Z,535
2017-03-30T07:52:08.137Z,515
2017-03-30T07:54:35.028Z,580
2017-03-30T07:57:01.998Z,605
2017-03-30T07:59:28.826Z,715
2017-03-30T08:01:55.747Z,1505
2017-03-30T08:04:25.516Z,1690
2017-03-30T08:06:52.423Z,600
2017-03-30T08:09:19.096Z,400
2017-03-30T08:11:45.553Z,350
2017-03-30T08:14:11.880Z,305
2017-03-30T08:16:37.992Z,255
2017-03-30T08:19:03.857Z,250
2017-03-30T08:21:30.506Z,250
2017-03-30T08:23:56.014Z,260
2017-03-30T08:26:21.378Z,280
2017-03-30T08:28:47.692Z,280
2017-03-30T08:31:13.866Z,290
2017-03-30T08:33:39.966Z,295
2017-03-30T08:36:05.920Z,295
2017-03-30T08:38:31.877Z,290
2017-03-30T08:40:58.732Z,295
2017-03-30T08:43:30.025Z,295
2017-03-30T08:46:03.747Z,295
2017-03-30T08:48:29.412Z,285
2017-03-30T08:50:55.150Z,275
2017-03-30T08:53:26.392Z,280
2017-03-30T08:55:53.074Z,280
2017-03-30T08:58:18.763Z,280
2017-03-30T09:00:50.384Z,270
2017-03-30T09:03:15.114Z,250
2017-03-30T09:05:40.752Z,215
2017-03-30T09:08:05.446Z,235
2017-03-30T09:10:30.037Z,235
2017-03-30T09:12:55.724Z,240
2017-03-30T09:15:21.351Z,225
2017-03-30T09:17:46.911Z,235
2017-03-30T09:20:11.892Z,230
2017-03-30T09:22:36.191Z,225
2017-03-30T09:25:02.761Z,225
2017-03-30T09:27:27.488Z,230
2017-03-30T09:29:53.098Z,230
2017-03-30T09:32:17.643Z,230
2017-03-30T09:34:50.871Z,220
2017-03-30T09:37:15.435Z,215
2017-03-30T09:39:39.999Z,210
2017-03-30T09:42:04.578Z,205
2017-03-30T09:44:31.154Z,200
2017-03-30T09:46:56.760Z,195
2017-03-30T09:49:21.553Z,185
2017-03-30T09:53:57.702Z,170
2017-03-30T09:56:23.329Z,165
2017-03-30T09:58:49.936Z,160
2017-03-30T10:01:14.580Z,155
2017-03-30T10:03:39.149Z,155
2017-03-30T10:06:03.679Z,150
2017-03-30T10:08:28.334Z,145
2017-03-30T10:10:54.884Z,145
2017-03-30T10:13:19.324Z,140
2017-03-30T10:15:43.840Z,135
2017-03-30T10:18:08.387Z,135
2017-03-30T10:20:33.899Z,135
2017-03-30T10:22:50.903Z,135
2017-03-30T10:25:15.486Z,125
2017-03-30T10:27:39.872Z,125
2017-03-30T10:30:05.423Z,120
2017-03-30T10:32:29.723Z,120
2017-03-30T10:34:54.263Z,115
2017-03-30T10:37:18.819Z,115
2017-03-30T10:39:43.199Z,115
2017-03-30T10:42:07.785Z,110
2017-03-30T10:44:32.339Z,110
2017-03-30T10:48:58.375Z,105
2017-03-30T10:51:22.696Z,105
2017-03-30T10:55:32.343Z,100
2017-03-30T10:57:58.002Z,100
2017-03-30T11:00:22.474Z,100
2017-03-30T11:02:47.361Z,100
2017-03-30T11:05:12.056Z,100
2017-03-30T11:07:36.780Z,100
2017-03-30T11:10:02.120Z,100
2017-03-30T11:12:27.465Z,100
2017-03-30T11:14:51.824Z,95
2017-03-30T11:17:16.196Z,95
2017-03-30T11:19:40.538Z,95
2017-03-30T11:22:04.938Z,95
2017-03-30T11:24:29.288Z,90
2017-03-30T11:26:53.686Z,90
2017-03-30T11:29:18.064Z,90
2017-03-30T11:31:42.439Z,90
2017-03-30T11:34:06.826Z,90
2017-03-30T11:36:32.383Z,85
2017-03-30T11:38:56.807Z,85
2017-03-30T11:41:22.224Z,85
2017-03-30T11:43:46.672Z,85
2017-03-30T11:46:11.176Z,80
2017-03-30T11:48:35.521Z,80
2017-03-30T11:50:59.873Z,80
2017-03-30T11:53:24.161Z,80
2017-03-30T11:55:48.589Z,80
2017-03-30T11:58:12.939Z,80
2017-03-30T12:00:37.321Z,80
2017-03-30T12:03:01.640Z,80
2017-03-30T12:05:26.023Z,80
2017-03-30T12:07:50.388Z,80
2017-03-30T12:10:14.737Z,80
2017-03-30T12:12:39.085Z,80
2017-03-30T12:15:03.398Z,80
2017-03-30T12:17:29.098Z,75
2017-03-30T12:19:45.093Z,75
2017-03-30T12:22:09.673Z,75
2017-03-30T12:24:33.990Z,75
2017-03-30T12:26:58.363Z,75
2017-03-30T12:29:22.577Z,75
2017-03-30T12:31:46.801Z,75
2017-03-30T12:34:11.126Z,75
2017-03-30T12:36:37.449Z,75
2017-03-30T12:39:02.788Z,75
2017-03-30T12:41:27.974Z,75
2017-03-30T12:43:52.303Z,75
2017-03-30T12:46:16.628Z,75
2017-03-30T12:48:41.925Z,75
2017-03-30T12:53:09.245Z,70
2017-03-30T12:55:33.556Z,75
2017-03-30T12:57:57.884Z,75
2017-03-30T13:00:22.197Z,75
2017-03-30T13:02:46.438Z,75
2017-03-30T13:05:11.756Z,70
2017-03-30T13:09:29.561Z,70
2017-03-30T13:11:45.524Z,70
2017-03-30T13:14:10.861Z,70
2017-03-30T13:16:35.143Z,70
2017-03-30T13:18:59.463Z,70
2017-03-30T13:22:59.524Z,70
2017-03-30T13:25:24.770Z,70
2017-03-30T13:27:49.471Z,70
2017-03-30T13:30:13.958Z,70
2017-03-30T13:32:38.596Z,70
2017-03-30T13:35:03.439Z,65
2017-03-30T13:37:28.721Z,65
2017-03-30T13:39:53.399Z,70
2017-03-30T13:42:17.848Z,70
2017-03-30T13:44:42.642Z,70
2017-03-30T13:47:06.717Z,65
2017-03-30T13:49:32.328Z,65
2017-03-30T13:51:56.497Z,65
2017-03-30T13:54:20.819Z,65
2017-03-30T13:56:45.264Z,65
2017-03-30T13:59:09.606Z,65
2017-03-30T14:01:34.327Z,65
2017-03-30T14:03:59.334Z,65
2017-03-30T14:08:40.765Z,65
2017-03-30T14:11:13.752Z,65
2017-03-30T14:13:38.785Z,65
2017-03-30T14:16:04.121Z,65
2017-03-30T14:21:56.586Z,65
2017-03-30T14:24:20.915Z,65
2017-03-30T14:26:45.370Z,65
2017-03-30T14:29:09.532Z,60
2017-03-30T14:31:33.839Z,65
2017-03-30T14:33:58.179Z,65
2017-03-30T14:36:22.623Z,65
2017-03-30T14:38:38.732Z,65
2017-03-30T14:41:03.067Z,65
2017-03-30T14:43:27.361Z,60
2017-03-30T14:45:43.434Z,60
2017-03-30T14:48:07.612Z,60
2017-03-30T14:50:31.874Z,60
2017-03-30T14:52:56.203Z,60
2017-03-30T14:55:20.394Z,60
2017-03-30T14:57:44.850Z,60
2017-03-30T15:00:09.148Z,60
2017-03-30T15:02:33.342Z,60
2017-03-30T15:04:57.613Z,60
2017-03-30T15:07:21.934Z,60
2017-03-30T15:09:46.193Z,60
2017-03-30T15:12:10.841Z,60
2017-03-30T15:14:35.946Z,60
2017-03-30T15:17:00.217Z,60
2017-03-30T15:19:15.915Z,60
2017-03-30T15:21:40.236Z,60
2017-03-30T15:24:04.456Z,60
2017-03-30T15:26:30.620Z,60
2017-03-30T15:28:54.796Z,55
2017-03-30T15:31:19.053Z,55
2017-03-30T15:33:43.437Z,55
2017-03-30T15:36:07.792Z,55
2017-03-30T15:38:32.139Z,55
2017-03-30T15:40:56.476Z,55
2017-03-30T15:43:20.814Z,55
2017-03-30T15:45:45.185Z,55
2017-03-30T15:48:09.498Z,55
2017-03-30T15:50:33.769Z,55
2017-03-30T15:52:58.093Z,55
2017-03-30T15:56:58.639Z,55
2017-03-30T15:59:14.492Z,50
2017-03-30T16:01:38.780Z,50
2017-03-30T16:04:03.130Z,50
2017-03-30T16:06:27.365Z,50
2017-03-30T16:11:02.017Z,50
2017-03-30T16:13:26.450Z,50
2017-03-30T16:15:50.675Z,50
2017-03-30T16:18:14.943Z,45
2017-03-30T16:20:39.216Z,45
2017-03-30T16:23:03.483Z,45
2017-03-30T16:25:27.656Z,45
2017-03-30T16:29:53.950Z,45
2017-03-30T16:32:18.285Z,45
2017-03-30T16:34:42.516Z,45
2017-03-30T16:37:06.670Z,40
2017-03-30T16:39:31.010Z,40
2017-03-30T16:41:55.242Z,40
2017-03-30T16:44:19.654Z,35
2017-03-30T16:46:43.812Z,35
2017-03-30T16:49:08.969Z,35
2017-03-30T16:51:32.295Z,35
2017-03-30T16:53:56.568Z,30
2017-03-30T16:56:20.869Z,30
2017-03-30T16:58:45.018Z,30
2017-03-30T17:01:09.126Z,30
2017-03-30T17:03:33.481Z,25
2017-03-30T17:05:57.719Z,25
2017-03-30T17:08:21.803Z,25
2017-03-30T17:10:45.971Z,20
2017-03-30T17:13:10.174Z,20
2017-03-30T17:15:34.335Z,20
2017-03-30T17:17:58.522Z,20
2017-03-30T17:20:16.319Z,15
2017-03-30T17:22:40.529Z,15
2017-03-30T17:25:05.776Z,15
2017-03-30T17:27:36.791Z,10
2017-03-30T17:30:07.744Z,10
2017-03-30T17:32:23.514Z,10
2017-03-30T17:34:40.284Z,5
2017-03-30T17:38:40.140Z,5
2017-03-30T17:41:10.993Z,5
2017-03-30T17:43:37.210Z,5
2017-03-30T17:45:54.915Z,0
2017-03-30T17:48:35.004Z,0
2017-03-30T17:51:02.554Z,0
2017-03-30T17:53:26.642Z,0
2017-03-30T17:55:50.728Z,0
2017-03-30T17:58:14.811Z,0
2017-03-30T18:00:38.891Z,0
2017-03-30T18:03:03.991Z,0
2017-03-30T18:05:39.616Z,0
2017-03-30T18:08:04.895Z,0
2017-03-30T18:10:28.928Z,0
2017-03-30T18:12:53.016Z,0
2017-03-30T18:15:17.078Z,0
2017-03-30T18:17:39.609Z,0
2017-03-30T18:20:04.658Z,0
2017-03-30T18:22:11.895Z,0
2017-03-30T18:28:47.149Z,0
2017-03-30T18:31:11.189Z,0
2017-03-30T18:33:35.160Z,0
2017-03-30T18:35:50.723Z,0
2017-03-30T18:38:14.716Z,0
2017-03-30T18:40:38.689Z,0
2017-03-30T18:42:54.235Z,0
2017-03-30T18:45:18.265Z,0
2017-03-30T18:47:43.252Z,0
2017-03-30T18:52:00.891Z,0
2017-03-30T18:54:24.890Z,0
2017-03-30T18:58:27.306Z,0
2017-03-30T19:00:51.369Z,0
2017-03-30T19:03:15.327Z,0
2017-03-30T19:05:41.345Z,0
2017-03-30T19:08:05.351Z,0
2017-03-30T19:14:49.577Z,0
2017-03-30T19:17:15.531Z,0
2017-03-30T19:19:39.545Z,0
2017-03-30T19:22:05.585Z,0
2017-03-30T19:24:30.566Z,0
2017-03-30T19:27:02.430Z,0
2017-03-30T19:29:26.421Z,0
2017-03-30T19:31:50.378Z,0
2017-03-30T19:34:14.241Z,0
2017-03-30T19:36:38.261Z,0
2017-03-30T19:40:38.582Z,0
2017-03-30T19:43:02.544Z,0
2017-03-30T19:45:28.486Z,0
2017-03-30T19:47:52.466Z,0
2017-03-30T19:50:17.506Z,0
2017-03-30T19:52:41.466Z,0
2017-03-30T19:55:06.410Z,0
2017-03-30T19:57:30.325Z,0
2017-03-30T19:59:54.209Z,0
2017-03-30T20:02:18.191Z,0
2017-03-30T20:04:42.243Z,0
2017-03-30T20:07:06.051Z,0
2017-03-30T20:09:30.020Z,0
2017-03-30T20:11:53.988Z,0
2017-03-30T20:14:17.978Z,0
2017-03-30T20:16:41.825Z,0
2017-03-30T20:19:07.803Z,0
2017-03-30T20:23:35.206Z,0
2017-03-30T20:25:59.125Z,0
2017-03-30T20:28:25.058Z,0
2017-03-30T20:30:49.074Z,0
2017-03-30T20:34:51.683Z,0
2017-03-30T20:38:52.632Z,0
2017-03-30T20:42:52.726Z,0
2017-03-30T20:45:17.631Z,0
2017-03-30T20:47:56.027Z,0
2017-03-30T20:51:56.320Z,0
2017-03-30T20:55:57.035Z,0
2017-03-30T20:59:57.172Z,0
2017-03-30T21:03:57.143Z,0
2017-03-30T21:06:22.121Z,0
2017-03-30T21:08:53.559Z,0
2017-03-30T21:11:18.455Z,0
2017-03-30T21:13:43.307Z,0
2017-03-30T21:16:22.099Z,0
2017-03-30T21:20:23.722Z,0
2017-03-30T21:23:02.616Z,0
2017-03-30T21:27:02.555Z,0
2017-03-30T21:29:42.460Z,0
2017-03-30T21:33:42.474Z,0
2017-03-30T21:36:15.405Z,0
2017-03-30T21:38:32.873Z,0
2017-03-30T21:40:57.714Z,0
2017-03-30T21:44:57.713Z,0
2017-03-30T21:48:57.683Z,0
2017-03-30T21:51:29.118Z,0
2017-03-30T21:53:55.043Z,0
2017-03-30T21:58:02.523Z,0
2017-03-30T22:00:34.929Z,0
2017-03-30T22:02:51.468Z,0
2017-03-30T22:05:15.261Z,0
2017-03-30T22:09:24.276Z,0
2017-03-30T22:20:45.387Z,0
2017-03-30T22:23:16.336Z,0
2017-03-30T22:25:55.125Z,0
2017-03-30T22:28:34.686Z,0
2017-03-30T22:30:59.546Z,0
2017-03-30T22:33:25.563Z,0
2017-03-30T22:35:50.554Z,0
2017-03-30T22:38:15.420Z,0
2017-03-30T22:40:40.271Z,0
2017-03-30T22:43:11.071Z,0
2017-03-30T22:45:34.904Z,0
2017-03-30T22:47:59.773Z,0
2017-03-30T22:51:59.806Z,0
2017-03-30T22:54:39.712Z,0
2017-03-30T22:57:04.564Z,0
2017-03-30T22:59:30.526Z,0
2017-03-30T23:01:57.563Z,0
2017-03-30T23:06:15.825Z,0
2017-03-30T23:08:43.829Z,0
2017-03-30T23:11:23.214Z,0
2017-03-30T23:14:04.906Z,0
2017-03-30T23:16:29.619Z,0
2017-03-30T23:18:54.489Z,0
2017-03-30T23:21:25.921Z,0
2017-03-30T23:23:49.796Z,0
2017-03-30T23:26:13.705Z,0
2017-03-30T23:28:54.830Z,0
2017-03-30T23:32:58.574Z,0
2017-03-30T23:35:26.165Z,0
2017-03-30T23:38:01.111Z,0
2017-03-30T23:42:02.407Z,0
2017-03-30T23:46:11.729Z,0
2017-03-30T23:55:28.150Z,0
2017-03-30T23:59:28.143Z,0
